createdAt,value
2022-09-13T00:00:00.042Z,22.11
2022-09-13T00:02:27.549Z,22.08
2022-09-13T00:04:55.581Z,22.07
2022-09-13T00:07:23.179Z,21.92
2022-09-13T00:09:50.727Z,21.86
2022-09-13T00:12:18.657Z,21.93
2022-09-13T00:14:46.273Z,21.84
2022-09-13T00:17:13.989Z,21.89
2022-09-13T00:19:41.963Z,21.92
2022-09-13T00:22:09.487Z,21.85
2022-09-13T00:24:37.438Z,21.92
2022-09-13T00:27:04.960Z,21.89
2022-09-13T00:29:32.566Z,21.86
2022-09-13T00:32:02.951Z,21.81
2022-09-13T00:34:30.986Z,21.87
2022-09-13T00:36:58.884Z,21.86
2022-09-13T00:39:26.707Z,21.77
2022-09-13T00:41:55.065Z,21.70
2022-09-13T00:44:51.480Z,21.69
2022-09-13T00:47:41.515Z,21.76
2022-09-13T00:50:24.284Z,21.67
2022-09-13T00:53:01.506Z,21.70
2022-09-13T00:55:34.853Z,21.75
2022-09-13T00:58:09.001Z,21.67
2022-09-13T01:00:38.929Z,21.63
2022-09-13T01:03:11.178Z,21.57
2022-09-13T01:05:51.185Z,21.51
2022-09-13T01:08:23.272Z,21.50
2022-09-13T01:10:52.752Z,21.42
2022-09-13T01:13:23.150Z,21.46
2022-09-13T01:15:52.015Z,21.50
2022-09-13T01:18:19.914Z,21.60
2022-09-13T01:21:09.334Z,21.58
2022-09-13T01:23:47.632Z,21.39
2022-09-13T01:26:27.338Z,21.27
2022-09-13T01:29:05.247Z,21.35
2022-09-13T01:31:44.519Z,21.38
2022-09-13T01:34:33.926Z,21.49
2022-09-13T01:37:20.042Z,21.43
2022-09-13T01:40:17.796Z,21.45
2022-09-13T01:43:01.556Z,21.36
2022-09-13T01:45:48.635Z,21.31
2022-09-13T01:48:42.371Z,21.36
2022-09-13T01:51:44.516Z,21.38
2022-09-13T01:54:26.992Z,21.00
2022-09-13T01:57:16.325Z,21.17
2022-09-13T01:59:52.756Z,21.38
2022-09-13T02:02:31.891Z,21.43
2022-09-13T02:05:06.499Z,21.42
2022-09-13T02:08:00.686Z,21.35
2022-09-13T02:10:32.318Z,21.23
2022-09-13T02:13:02.901Z,21.10
2022-09-13T02:15:37.923Z,20.90
2022-09-13T02:18:41.265Z,20.66
2022-09-13T02:21:20.462Z,20.56
2022-09-13T02:23:53.551Z,20.45
2022-09-13T02:26:24.398Z,20.61
2022-09-13T02:28:54.854Z,20.55
2022-09-13T02:31:30.075Z,20.65
2022-09-13T02:34:04.280Z,20.73
2022-09-13T02:36:40.626Z,20.84
2022-09-13T02:39:14.246Z,20.90
2022-09-13T02:42:11.779Z,20.88
2022-09-13T02:44:45.412Z,20.83
2022-09-13T02:47:34.283Z,20.44
2022-09-13T02:50:25.876Z,20.38
2022-09-13T02:53:18.259Z,20.30
2022-09-13T02:56:08.659Z,20.37
2022-09-13T02:59:21.226Z,20.37
2022-09-13T03:01:55.119Z,20.39
2022-09-13T03:04:22.818Z,20.55
2022-09-13T03:06:50.644Z,20.60
2022-09-13T03:09:20.110Z,20.62
2022-09-13T03:12:35.169Z,20.56
2022-09-13T03:15:19.870Z,20.64
2022-09-13T03:18:24.845Z,20.63
2022-09-13T03:21:11.951Z,20.45
2022-09-13T03:23:45.501Z,20.33
2022-09-13T03:26:43.217Z,20.39
2022-09-13T03:29:23.540Z,20.47
2022-09-13T03:32:16.980Z,20.46
2022-09-13T03:34:56.281Z,20.47
2022-09-13T03:37:43.760Z,20.43
2022-09-13T03:40:22.313Z,20.43
2022-09-13T03:43:00.254Z,20.35
2022-09-13T03:45:33.257Z,20.42
2022-09-13T03:48:03.056Z,20.29
2022-09-13T03:50:32.040Z,20.23
2022-09-13T03:53:09.001Z,20.36
2022-09-13T03:55:41.805Z,20.42
2022-09-13T03:58:14.593Z,20.42
2022-09-13T04:00:43.511Z,20.44
2022-09-13T04:03:11.914Z,20.51
2022-09-13T04:05:40.179Z,20.43
2022-09-13T04:08:08.646Z,20.44
2022-09-13T04:10:37.783Z,20.44
2022-09-13T04:13:06.192Z,20.30
2022-09-13T04:15:34.287Z,20.22
2022-09-13T04:18:01.754Z,20.09
2022-09-13T04:20:29.503Z,20.07
2022-09-13T04:22:58.032Z,20.16
2022-09-13T04:25:25.798Z,20.10
2022-09-13T04:27:58.229Z,20.22
2022-09-13T04:30:28.233Z,20.21
2022-09-13T04:32:59.738Z,20.22
2022-09-13T04:35:28.732Z,20.17
2022-09-13T04:37:58.198Z,20.13
2022-09-13T04:40:26.233Z,20.18
2022-09-13T04:42:54.291Z,20.25
2022-09-13T04:45:22.234Z,20.23
2022-09-13T04:47:54.116Z,20.18
2022-09-13T04:50:23.142Z,20.27
2022-09-13T04:52:52.175Z,20.31
2022-09-13T04:55:20.600Z,20.18
2022-09-13T04:57:48.149Z,20.12
2022-09-13T05:00:16.335Z,20.07
2022-09-13T05:02:44.592Z,20.22
2022-09-13T05:05:12.428Z,20.22
2022-09-13T05:07:40.302Z,20.27
2022-09-13T05:10:08.472Z,20.31
2022-09-13T05:12:35.970Z,20.33
2022-09-13T05:15:03.630Z,20.35
2022-09-13T05:17:32.154Z,20.34
2022-09-13T05:20:00.157Z,20.44
2022-09-13T05:22:27.681Z,20.57
2022-09-13T05:24:56.395Z,20.62
2022-09-13T05:27:23.918Z,20.64
2022-09-13T05:29:51.491Z,20.72
2022-09-13T05:32:19.383Z,20.74
2022-09-13T05:34:47.946Z,20.85
2022-09-13T05:37:15.481Z,20.90
2022-09-13T05:40:09.827Z,20.99
2022-09-13T05:42:30.993Z,21.10
2022-09-13T05:44:58.501Z,21.15
2022-09-13T05:47:26.462Z,21.11
2022-09-13T05:50:11.014Z,21.17
2022-09-13T05:52:41.237Z,21.31
2022-09-13T05:55:09.943Z,21.43
2022-09-13T05:57:37.973Z,21.55
2022-09-13T06:00:06.371Z,21.74
2022-09-13T06:02:41.437Z,21.84
2022-09-13T06:05:10.810Z,21.94
2022-09-13T06:07:42.598Z,21.83
2022-09-13T06:10:11.643Z,22.05
2022-09-13T06:12:39.658Z,22.05
2022-09-13T06:15:09.227Z,22.07
2022-09-13T06:17:37.323Z,22.01
2022-09-13T06:20:05.439Z,22.10
2022-09-13T06:22:35.246Z,22.29
2022-09-13T06:25:03.015Z,22.31
2022-09-13T06:27:31.616Z,22.47
2022-09-13T06:29:59.297Z,22.58
2022-09-13T06:32:26.914Z,22.59
2022-09-13T06:34:54.442Z,22.80
2022-09-13T06:37:22.406Z,22.94
2022-09-13T06:39:50.492Z,23.01
2022-09-13T06:42:18.661Z,23.13
2022-09-13T06:44:46.372Z,23.32
2022-09-13T06:47:14.918Z,23.32
2022-09-13T06:49:42.682Z,23.19
2022-09-13T06:52:10.625Z,22.95
2022-09-13T06:54:38.659Z,23.15
2022-09-13T06:57:06.469Z,23.06
2022-09-13T06:59:35.063Z,23.39
2022-09-13T07:02:03.121Z,23.25
2022-09-13T07:04:31.804Z,23.35
2022-09-13T07:06:59.939Z,23.31
2022-09-13T07:09:28.301Z,23.37
2022-09-13T07:11:56.727Z,23.61
2022-09-13T07:14:26.186Z,23.65
2022-09-13T07:16:54.428Z,23.73
2022-09-13T07:19:24.365Z,23.91
2022-09-13T07:21:52.487Z,23.93
2022-09-13T07:24:21.479Z,24.02
2022-09-13T07:26:49.239Z,23.98
2022-09-13T07:29:19.857Z,24.21
2022-09-13T07:31:49.665Z,24.44
2022-09-13T07:34:23.076Z,24.17
2022-09-13T07:36:51.033Z,24.26
2022-09-13T07:39:22.319Z,24.29
2022-09-13T07:41:51.901Z,24.46
2022-09-13T07:44:20.036Z,24.50
2022-09-13T07:46:48.100Z,24.49
2022-09-13T07:49:19.089Z,24.51
2022-09-13T07:51:47.089Z,24.35
2022-09-13T07:54:17.925Z,24.29
2022-09-13T07:56:46.467Z,24.48
2022-09-13T07:59:16.343Z,24.77
2022-09-13T08:01:47.457Z,24.65
2022-09-13T08:04:18.918Z,24.79
2022-09-13T08:06:47.524Z,24.91
2022-09-13T08:09:15.951Z,24.96
2022-09-13T08:11:49.159Z,24.97
2022-09-13T08:14:18.951Z,25.06
2022-09-13T08:16:47.002Z,24.84
2022-09-13T08:19:17.319Z,25.00
2022-09-13T08:21:46.083Z,25.15
2022-09-13T08:24:17.182Z,25.12
2022-09-13T08:26:45.584Z,25.23
2022-09-13T08:29:14.450Z,25.25
2022-09-13T08:31:42.448Z,25.24
2022-09-13T08:34:12.962Z,25.12
2022-09-13T08:36:41.272Z,25.23
2022-09-13T08:39:10.260Z,25.44
2022-09-13T08:41:42.230Z,25.63
2022-09-13T08:44:31.177Z,25.77
2022-09-13T08:47:17.556Z,26.01
2022-09-13T08:49:49.265Z,26.27
2022-09-13T08:52:28.720Z,26.31
2022-09-13T08:54:58.727Z,26.26
2022-09-13T08:57:47.553Z,26.58
2022-09-13T09:00:32.285Z,26.95
2022-09-13T09:03:18.623Z,26.80
2022-09-13T09:05:49.701Z,26.73
2022-09-13T09:08:43.313Z,27.02
2022-09-13T09:11:42.755Z,27.08
2022-09-13T09:14:58.304Z,28.57
2022-09-13T09:18:02.295Z,28.84
2022-09-13T09:20:46.699Z,29.56
2022-09-13T09:23:27.630Z,30.44
2022-09-13T09:26:16.226Z,31.15
2022-09-13T09:29:05.304Z,31.01
2022-09-13T09:31:51.027Z,31.00
2022-09-13T09:34:42.854Z,31.38
2022-09-13T09:37:21.317Z,31.65
2022-09-13T09:39:51.076Z,32.10
2022-09-13T09:42:29.095Z,32.36
2022-09-13T09:45:03.757Z,32.34
2022-09-13T09:47:46.016Z,32.34
2022-09-13T09:50:18.781Z,31.60
2022-09-13T09:52:56.756Z,31.72
2022-09-13T09:55:29.943Z,32.15
2022-09-13T09:58:06.628Z,32.55
2022-09-13T10:00:58.015Z,33.51
2022-09-13T10:03:29.462Z,33.15
2022-09-13T10:06:14.144Z,33.98
2022-09-13T10:08:44.068Z,34.95
2022-09-13T10:11:13.014Z,33.48
2022-09-13T10:13:59.182Z,34.38
2022-09-13T10:16:29.796Z,34.67
2022-09-13T10:19:24.854Z,34.84
2022-09-13T10:22:06.002Z,36.39
2022-09-13T10:24:33.802Z,36.45
2022-09-13T10:27:04.223Z,35.92
2022-09-13T10:29:32.221Z,36.14
2022-09-13T10:32:07.789Z,36.15
2022-09-13T10:34:37.218Z,37.55
2022-09-13T10:37:14.905Z,37.01
2022-09-13T10:40:34.167Z,36.68
2022-09-13T10:43:05.003Z,35.62
2022-09-13T10:45:33.267Z,35.93
2022-09-13T10:48:07.175Z,36.95
2022-09-13T10:50:36.297Z,36.59
2022-09-13T10:53:05.722Z,35.90
2022-09-13T10:55:41.029Z,35.98
2022-09-13T10:58:08.640Z,35.83
2022-09-13T11:00:54.495Z,36.09
2022-09-13T11:03:59.783Z,38.01
2022-09-13T11:06:42.197Z,37.67
2022-09-13T11:09:28.019Z,37.55
2022-09-13T11:12:27.426Z,37.60
2022-09-13T11:15:15.941Z,37.34
2022-09-13T11:17:52.526Z,36.36
2022-09-13T11:20:38.650Z,36.94
2022-09-13T11:23:25.578Z,37.50
2022-09-13T11:26:17.671Z,37.91
2022-09-13T11:28:58.911Z,37.34
2022-09-13T11:31:41.849Z,37.16
2022-09-13T11:34:32.665Z,37.43
2022-09-13T11:37:09.801Z,37.58
2022-09-13T11:39:42.883Z,37.17
2022-09-13T11:42:16.040Z,36.53
2022-09-13T11:45:08.377Z,36.96
2022-09-13T11:47:59.538Z,37.53
2022-09-13T11:50:44.468Z,37.23
2022-09-13T11:53:18.046Z,37.83
2022-09-13T11:55:54.424Z,38.69
2022-09-13T11:58:46.305Z,39.89
2022-09-13T12:01:21.975Z,40.67
2022-09-13T12:04:33.087Z,40.31
2022-09-13T12:07:06.298Z,40.78
2022-09-13T12:10:00.332Z,38.92
2022-09-13T12:12:34.453Z,37.68
2022-09-13T12:15:15.736Z,37.03
2022-09-13T12:17:53.141Z,38.14
2022-09-13T12:20:35.542Z,38.36
2022-09-13T12:23:08.672Z,38.23
2022-09-13T12:26:05.224Z,38.68
2022-09-13T12:28:41.760Z,39.36
2022-09-13T12:31:19.762Z,39.40
2022-09-13T12:33:49.175Z,38.69
2022-09-13T12:36:23.096Z,39.10
2022-09-13T12:39:06.660Z,38.66
2022-09-13T12:41:53.426Z,39.49
2022-09-13T12:44:39.006Z,39.53
2022-09-13T12:47:41.146Z,39.81
2022-09-13T12:50:44.153Z,39.49
2022-09-13T12:53:36.890Z,38.51
2022-09-13T12:56:31.119Z,38.02
2022-09-13T12:59:25.923Z,38.52
2022-09-13T13:01:54.495Z,39.27
2022-09-13T13:04:35.904Z,40.07
2022-09-13T13:07:08.363Z,39.26
2022-09-13T13:09:43.786Z,41.08
2022-09-13T13:12:29.789Z,41.28
2022-09-13T13:14:58.526Z,40.72
2022-09-13T13:17:53.629Z,42.47
2022-09-13T13:20:47.610Z,44.47
2022-09-13T13:23:36.552Z,45.04
2022-09-13T13:26:32.990Z,43.75
2022-09-13T13:29:11.562Z,44.52
2022-09-13T13:31:42.363Z,45.83
2022-09-13T13:34:16.550Z,43.75
2022-09-13T13:36:49.077Z,44.32
2022-09-13T13:39:25.997Z,42.61
2022-09-13T13:41:59.115Z,42.25
2022-09-13T13:44:27.125Z,41.80
2022-09-13T13:47:15.364Z,40.61
2022-09-13T13:49:52.669Z,40.81
2022-09-13T13:52:22.723Z,41.04
2022-09-13T13:55:04.824Z,42.35
2022-09-13T13:57:50.271Z,42.30
2022-09-13T14:00:18.142Z,42.82
2022-09-13T14:03:16.295Z,41.18
2022-09-13T14:06:01.054Z,40.40
2022-09-13T14:09:02.658Z,38.83
2022-09-13T14:12:10.839Z,38.65
2022-09-13T14:14:47.715Z,37.30
2022-09-13T14:17:32.091Z,36.74
2022-09-13T14:20:13.327Z,36.81
2022-09-13T14:22:40.886Z,38.12
2022-09-13T14:25:24.582Z,38.00
2022-09-13T14:27:59.412Z,38.51
2022-09-13T14:30:35.804Z,40.14
2022-09-13T14:33:08.788Z,40.36
2022-09-13T14:35:38.162Z,40.72
2022-09-13T14:38:31.041Z,40.98
2022-09-13T14:41:01.877Z,41.39
2022-09-13T14:43:31.050Z,42.29
2022-09-13T14:46:17.246Z,43.95
2022-09-13T14:49:08.650Z,45.22
2022-09-13T14:51:42.017Z,44.99
2022-09-13T14:54:40.770Z,46.62
2022-09-13T14:57:21.206Z,48.05
2022-09-13T14:59:52.766Z,48.06
2022-09-13T15:02:30.023Z,48.46
2022-09-13T15:04:59.991Z,45.48
2022-09-13T15:07:32.235Z,45.63
2022-09-13T15:10:11.086Z,46.07
2022-09-13T15:12:54.364Z,46.10
2022-09-13T15:15:21.839Z,46.46
2022-09-13T15:17:52.426Z,47.25
2022-09-13T15:20:22.271Z,47.55
2022-09-13T15:22:54.154Z,46.59
2022-09-13T15:25:26.259Z,45.26
2022-09-13T15:27:58.170Z,45.07
2022-09-13T15:30:32.379Z,44.52
2022-09-13T15:33:12.768Z,43.03
2022-09-13T15:35:43.259Z,40.99
2022-09-13T15:38:29.055Z,39.50
2022-09-13T15:41:10.798Z,38.06
2022-09-13T15:43:38.603Z,36.95
2022-09-13T15:46:06.874Z,36.86
2022-09-13T15:48:36.255Z,35.99
2022-09-13T15:51:07.427Z,35.48
2022-09-13T15:53:37.470Z,35.47
2022-09-13T15:56:07.215Z,34.99
2022-09-13T15:58:36.007Z,34.16
2022-09-13T16:01:05.147Z,33.70
2022-09-13T16:03:32.852Z,33.42
2022-09-13T16:06:00.577Z,32.77
2022-09-13T16:08:28.503Z,32.68
2022-09-13T16:10:56.534Z,32.46
2022-09-13T16:13:24.238Z,32.05
2022-09-13T16:15:55.823Z,31.66
2022-09-13T16:18:25.647Z,31.34
2022-09-13T16:20:53.168Z,31.19
2022-09-13T16:23:21.629Z,30.56
2022-09-13T16:25:55.709Z,30.46
2022-09-13T16:28:23.356Z,30.34
2022-09-13T16:30:51.568Z,30.09
2022-09-13T16:33:19.787Z,29.93
2022-09-13T16:35:47.951Z,29.72
2022-09-13T16:38:15.963Z,29.67
2022-09-13T16:40:45.243Z,29.44
2022-09-13T16:43:13.660Z,29.41
2022-09-13T16:45:43.021Z,29.46
2022-09-13T16:48:11.183Z,29.48
2022-09-13T16:50:41.793Z,29.63
2022-09-13T16:53:10.055Z,29.65
2022-09-13T16:55:40.104Z,29.78
2022-09-13T16:58:07.996Z,29.84
2022-09-13T17:00:35.823Z,29.61
2022-09-13T17:03:04.172Z,29.24
2022-09-13T17:05:32.254Z,28.98
2022-09-13T17:08:00.130Z,28.96
2022-09-13T17:10:28.882Z,28.75
2022-09-13T17:12:56.504Z,28.78
2022-09-13T17:15:24.153Z,28.73
2022-09-13T17:17:52.638Z,28.80
2022-09-13T17:20:20.873Z,28.55
2022-09-13T17:22:50.313Z,28.54
2022-09-13T17:25:20.835Z,28.40
2022-09-13T17:27:48.456Z,28.45
2022-09-13T17:30:15.950Z,28.27
2022-09-13T17:32:43.455Z,28.23
2022-09-13T17:35:12.086Z,27.91
2022-09-13T17:37:39.662Z,27.90
2022-09-13T17:40:08.086Z,27.92
2022-09-13T17:42:35.625Z,27.85
2022-09-13T17:45:03.303Z,27.95
2022-09-13T17:47:31.090Z,27.95
2022-09-13T17:49:59.263Z,27.87
2022-09-13T17:52:29.650Z,27.65
2022-09-13T17:55:00.513Z,27.55
2022-09-13T17:57:28.577Z,27.42
2022-09-13T17:59:56.245Z,27.46
2022-09-13T18:02:23.888Z,27.31
2022-09-13T18:04:52.338Z,27.17
2022-09-13T18:07:20.737Z,27.18
2022-09-13T18:09:48.978Z,27.04
2022-09-13T18:12:17.091Z,26.94
2022-09-13T18:14:44.658Z,26.96
2022-09-13T18:17:13.388Z,27.07
2022-09-13T18:19:46.348Z,27.17
2022-09-13T18:22:15.183Z,27.27
2022-09-13T18:24:42.728Z,27.18
2022-09-13T18:27:10.728Z,27.06
2022-09-13T18:29:38.227Z,27.03
2022-09-13T18:32:06.395Z,26.76
2022-09-13T18:34:33.876Z,26.75
2022-09-13T18:37:01.919Z,26.70
2022-09-13T18:39:30.588Z,26.50
2022-09-13T18:41:58.077Z,26.45
2022-09-13T18:44:25.742Z,26.27
2022-09-13T18:46:54.209Z,26.16
2022-09-13T18:49:22.530Z,26.09
2022-09-13T18:51:50.085Z,26.29
2022-09-13T18:54:18.753Z,26.13
2022-09-13T18:56:47.750Z,25.99
2022-09-13T18:59:15.987Z,26.14
2022-09-13T19:01:45.310Z,26.10
2022-09-13T19:04:14.534Z,26.10
2022-09-13T19:06:48.352Z,26.16
2022-09-13T19:09:17.568Z,26.09
2022-09-13T19:11:48.944Z,26.16
2022-09-13T19:14:25.575Z,26.04
2022-09-13T19:16:56.525Z,25.86
2022-09-13T19:19:24.756Z,25.70
2022-09-13T19:21:52.306Z,25.68
2022-09-13T19:24:21.186Z,25.84
2022-09-13T19:26:51.777Z,25.83
2022-09-13T19:29:22.731Z,25.82
2022-09-13T19:31:52.581Z,25.85
2022-09-13T19:34:22.527Z,25.81
2022-09-13T19:36:57.323Z,25.78
2022-09-13T19:39:29.581Z,25.70
2022-09-13T19:42:00.540Z,25.76
2022-09-13T19:44:28.826Z,25.76
2022-09-13T19:47:36.313Z,25.62
2022-09-13T19:49:45.302Z,25.59
2022-09-13T19:52:13.590Z,25.57
2022-09-13T19:54:41.568Z,25.51
2022-09-13T19:57:09.984Z,25.45
2022-09-13T19:59:37.496Z,25.51
2022-09-13T20:02:05.392Z,25.48
2022-09-13T20:04:33.068Z,25.56
2022-09-13T20:07:01.147Z,25.60
2022-09-13T20:09:28.763Z,25.44
2022-09-13T20:12:00.436Z,25.46
2022-09-13T20:14:28.682Z,25.05
2022-09-13T20:16:58.014Z,24.74
2022-09-13T20:19:44.798Z,24.68
2022-09-13T20:22:13.226Z,24.61
2022-09-13T20:24:40.828Z,24.49
2022-09-13T20:38:09.005Z,24.27
2022-09-13T20:40:36.511Z,24.32
2022-09-13T20:44:01.782Z,24.21
2022-09-13T20:47:28.129Z,24.05
2022-09-13T20:49:56.252Z,24.17
2022-09-13T20:52:44.604Z,24.27
2022-09-13T20:55:12.928Z,24.36
2022-09-13T20:58:05.904Z,24.50
2022-09-13T21:00:38.399Z,24.44
2022-09-13T21:03:44.290Z,24.48
2022-09-13T21:06:12.038Z,24.37
2022-09-13T21:08:58.950Z,24.46
2022-09-13T21:11:33.099Z,24.48
2022-09-13T21:14:09.576Z,24.53
2022-09-13T21:16:41.340Z,24.26
2022-09-13T21:19:34.313Z,24.31
2022-09-13T21:22:03.386Z,24.35
2022-09-13T21:24:31.672Z,24.29
2022-09-13T21:26:59.572Z,24.19
2022-09-13T21:29:27.100Z,24.17
2022-09-13T21:31:57.515Z,24.04
2022-09-13T21:34:27.510Z,24.14
2022-09-13T21:36:56.912Z,24.18
2022-09-13T21:39:24.430Z,24.10
2022-09-13T21:41:52.062Z,24.06
2022-09-13T21:44:19.506Z,24.15
2022-09-13T21:46:47.350Z,24.23
2022-09-13T21:49:31.389Z,24.35
2022-09-13T21:51:59.590Z,24.30
2022-09-13T21:54:27.123Z,24.38
2022-09-13T21:56:54.921Z,24.34
2022-09-13T21:59:23.933Z,24.30
2022-09-13T22:02:42.078Z,24.44
2022-09-13T22:05:34.505Z,24.13
2022-09-13T22:08:02.275Z,24.23
2022-09-13T22:10:29.825Z,24.18
2022-09-13T22:12:57.740Z,24.11
2022-09-13T22:15:25.257Z,23.99
2022-09-13T22:21:41.415Z,24.09
2022-09-13T22:24:14.200Z,24.25
2022-09-13T22:26:41.791Z,24.22
2022-09-13T22:29:40.664Z,24.14
2022-09-13T22:32:09.021Z,24.03
2022-09-13T22:34:36.663Z,24.06
2022-09-13T22:37:04.551Z,23.96
2022-09-13T22:39:33.000Z,23.95
2022-09-13T22:42:01.399Z,23.91
2022-09-13T22:44:29.370Z,23.88
2022-09-13T22:47:21.807Z,23.94
2022-09-13T22:50:08.025Z,24.05
2022-09-13T22:53:27.588Z,24.09
2022-09-13T22:55:55.072Z,24.04
2022-09-13T23:02:21.154Z,23.97
2022-09-13T23:04:49.278Z,23.94
2022-09-13T23:07:17.050Z,23.98
2022-09-13T23:13:08.362Z,24.14
2022-09-13T23:16:10.598Z,24.05
2022-09-13T23:19:29.488Z,24.01
2022-09-13T23:21:57.108Z,23.92
2022-09-13T23:24:25.150Z,23.85
2022-09-13T23:26:55.477Z,23.93
2022-09-13T23:29:23.369Z,23.94
2022-09-13T23:31:51.500Z,23.98
2022-09-13T23:34:20.582Z,24.08
2022-09-13T23:36:48.418Z,24.16
2022-09-13T23:39:27.109Z,24.03
2022-09-13T23:41:55.374Z,23.93
2022-09-13T23:44:33.367Z,23.99
2022-09-13T23:47:09.854Z,24.01
2022-09-13T23:49:37.871Z,24.07
2022-09-13T23:52:05.439Z,23.96
2022-09-13T23:54:32.921Z,23.99
2022-09-13T23:57:00.613Z,23.99
